createdAt,value
2023-01-13T00:03:41.815Z,15.80
2023-01-13T00:08:50.128Z,15.80
2023-01-13T00:13:54.790Z,15.80
2023-01-13T00:19:00.214Z,15.80
2023-01-13T00:24:05.038Z,15.90
2023-01-13T00:29:09.429Z,15.80
2023-01-13T00:34:13.870Z,15.90
2023-01-13T00:39:18.627Z,15.90
2023-01-13T00:44:23.180Z,15.80
2023-01-13T00:49:27.517Z,15.80
2023-01-13T00:54:31.994Z,15.80
2023-01-13T00:59:36.515Z,15.80
2023-01-13T01:04:40.840Z,15.70
2023-01-13T01:09:45.176Z,15.80
2023-01-13T01:14:49.718Z,15.80
2023-01-13T01:19:53.986Z,15.80
2023-01-13T01:24:59.010Z,15.80
2023-01-13T01:30:03.474Z,15.80
2023-01-13T01:35:08.201Z,15.80
2023-01-13T01:40:13.107Z,15.80
2023-01-13T01:45:25.935Z,15.80
2023-01-13T01:50:32.084Z,15.70
2023-01-13T01:55:37.671Z,15.70
2023-01-13T02:00:42.139Z,15.70
2023-01-13T02:05:46.511Z,15.70
2023-01-13T02:10:54.741Z,15.60
2023-01-13T02:16:17.315Z,15.60
2023-01-13T02:21:40.524Z,15.60
2023-01-13T02:27:15.919Z,15.60
2023-01-13T02:32:34.122Z,15.60
2023-01-13T02:37:42.865Z,15.70
2023-01-13T02:43:15.590Z,15.60
2023-01-13T02:48:23.158Z,15.60
2023-01-13T02:53:36.838Z,15.70
2023-01-13T02:58:44.201Z,15.70
2023-01-13T03:03:50.404Z,15.60
2023-01-13T03:09:06.079Z,15.60
2023-01-13T03:14:41.694Z,15.60
2023-01-13T03:20:05.268Z,15.60
2023-01-13T03:25:10.019Z,15.60
2023-01-13T03:30:33.653Z,15.60
2023-01-13T03:35:43.719Z,15.50
2023-01-13T03:40:55.370Z,15.60
2023-01-13T03:46:07.211Z,15.60
2023-01-13T03:51:16.015Z,15.60
2023-01-13T03:56:42.800Z,15.60
2023-01-13T04:01:54.023Z,15.50
2023-01-13T04:07:30.547Z,15.50
2023-01-13T04:13:03.257Z,15.50
2023-01-13T04:18:18.115Z,15.50
2023-01-13T04:23:23.064Z,15.60
2023-01-13T04:28:28.016Z,15.50
2023-01-13T04:33:32.305Z,15.60
2023-01-13T04:38:36.426Z,15.60
2023-01-13T04:43:41.038Z,15.60
2023-01-13T04:48:45.043Z,15.60
2023-01-13T04:53:49.197Z,15.60
2023-01-13T04:58:53.345Z,15.60
2023-01-13T05:03:57.567Z,15.60
2023-01-13T05:09:03.144Z,15.70
2023-01-13T05:14:26.207Z,15.60
2023-01-13T05:19:37.097Z,15.60
2023-01-13T05:25:00.371Z,15.60
2023-01-13T05:30:05.902Z,15.60
2023-01-13T05:35:10.371Z,15.60
2023-01-13T05:40:35.299Z,15.50
2023-01-13T05:45:39.651Z,15.50
2023-01-13T05:50:44.585Z,15.50
2023-01-13T05:55:49.432Z,15.50
2023-01-13T06:00:54.277Z,15.40
2023-01-13T06:06:02.721Z,15.40
2023-01-13T06:11:08.318Z,15.40
2023-01-13T06:16:12.779Z,15.50
2023-01-13T06:21:17.070Z,15.60
2023-01-13T06:26:24.032Z,15.40
2023-01-13T06:31:28.978Z,15.50
2023-01-13T06:36:38.214Z,15.50
2023-01-13T06:42:01.333Z,15.50
2023-01-13T06:47:06.552Z,15.50
2023-01-13T06:52:10.519Z,15.40
2023-01-13T06:57:14.653Z,15.50
2023-01-13T07:02:19.311Z,15.50
2023-01-13T07:07:23.861Z,15.40
2023-01-13T07:12:27.882Z,15.40
2023-01-13T07:17:32.129Z,15.40
2023-01-13T07:22:36.471Z,15.40
2023-01-13T07:27:40.909Z,15.40
2023-01-13T07:32:45.241Z,15.40
2023-01-13T07:37:50.085Z,15.40
2023-01-13T07:43:12.643Z,15.40
2023-01-13T07:48:16.999Z,15.40
2023-01-13T07:53:22.365Z,15.40
2023-01-13T07:58:28.053Z,15.30
2023-01-13T08:03:32.361Z,15.40
2023-01-13T08:08:37.102Z,15.30
2023-01-13T08:13:41.133Z,15.50
2023-01-13T08:18:45.115Z,15.40
2023-01-13T08:23:49.821Z,15.40
2023-01-13T08:28:54.149Z,15.40
2023-01-13T08:33:58.373Z,15.40
2023-01-13T08:39:02.648Z,15.40
2023-01-13T08:44:09.550Z,15.40
2023-01-13T08:49:13.663Z,15.40
2023-01-13T08:54:18.514Z,15.40
2023-01-13T08:59:23.073Z,15.40
2023-01-13T09:04:29.521Z,15.50
2023-01-13T09:09:34.203Z,15.60
2023-01-13T09:14:39.974Z,15.50
2023-01-13T09:19:44.195Z,15.50
2023-01-13T09:24:48.853Z,15.50
2023-01-13T09:29:52.979Z,15.50
2023-01-13T09:35:03.443Z,15.60
2023-01-13T09:40:22.940Z,15.50
2023-01-13T09:45:33.352Z,15.50
2023-01-13T09:50:49.153Z,15.60
2023-01-13T09:55:53.463Z,15.60
2023-01-13T10:01:20.370Z,15.50
2023-01-13T10:06:39.441Z,15.50
2023-01-13T10:12:06.776Z,15.50
2023-01-13T10:17:40.575Z,15.60
2023-01-13T10:22:59.844Z,15.60
2023-01-13T10:28:17.703Z,15.60
2023-01-13T10:33:28.741Z,15.50
2023-01-13T10:38:45.164Z,15.70
2023-01-13T10:43:52.415Z,15.50
2023-01-13T10:48:59.207Z,15.60
2023-01-13T10:54:14.801Z,15.60
2023-01-13T10:59:27.440Z,15.60
2023-01-13T11:04:35.960Z,15.70
2023-01-13T11:09:40.095Z,15.60
2023-01-13T11:14:47.305Z,15.70
2023-01-13T11:19:58.905Z,15.60
2023-01-13T11:25:10.801Z,15.70
2023-01-13T11:30:22.850Z,15.80
2023-01-13T11:35:28.188Z,15.70
2023-01-13T11:40:41.042Z,15.70
2023-01-13T11:45:49.968Z,15.50
2023-01-13T11:51:05.264Z,15.50
2023-01-13T11:56:47.055Z,15.60
2023-01-13T12:02:12.417Z,15.60
2023-01-13T12:07:28.072Z,15.50
2023-01-13T12:13:01.269Z,15.70
2023-01-13T12:18:34.863Z,15.80
2023-01-13T12:23:52.012Z,15.80
2023-01-13T12:29:05.697Z,15.80
2023-01-13T12:34:18.595Z,15.80
2023-01-13T12:39:50.148Z,15.80
2023-01-13T12:45:10.251Z,15.70
2023-01-13T12:50:23.388Z,15.70
2023-01-13T12:55:31.627Z,15.70
2023-01-13T13:00:41.836Z,15.70
2023-01-13T13:06:08.632Z,15.80
2023-01-13T13:11:34.289Z,16.00
2023-01-13T13:16:52.410Z,16.00
2023-01-13T13:22:19.410Z,16.00
2023-01-13T13:27:31.873Z,15.90
2023-01-13T13:32:38.895Z,15.90
2023-01-13T13:38:29.829Z,15.80
2023-01-13T13:43:59.929Z,15.80
2023-01-13T13:49:04.119Z,15.90
2023-01-13T13:54:15.230Z,15.90
2023-01-13T13:59:23.793Z,15.90
2023-01-13T14:04:36.506Z,15.80
2023-01-13T14:09:45.608Z,15.80
2023-01-13T14:14:51.376Z,15.80
2023-01-13T14:20:05.467Z,15.80
2023-01-13T14:25:28.638Z,15.80
2023-01-13T14:30:33.566Z,15.80
2023-01-13T14:35:37.719Z,15.80
2023-01-13T14:40:46.029Z,15.80
2023-01-13T14:46:02.872Z,15.80
2023-01-13T14:51:11.492Z,15.80
2023-01-13T14:56:43.149Z,15.80
2023-01-13T15:01:48.014Z,15.80
2023-01-13T15:06:55.737Z,15.80
2023-01-13T15:12:00.459Z,15.80
2023-01-13T15:17:15.866Z,15.80
2023-01-13T15:22:20.185Z,15.80
2023-01-13T15:27:26.900Z,15.90
2023-01-13T15:32:30.807Z,15.90
2023-01-13T15:37:35.460Z,15.80
2023-01-13T15:42:58.125Z,15.90
2023-01-13T15:48:03.678Z,15.80
2023-01-13T15:53:07.916Z,15.80
2023-01-13T15:58:14.179Z,15.90
2023-01-13T16:03:19.099Z,15.80
2023-01-13T16:08:23.910Z,15.90
2023-01-13T16:13:28.178Z,15.80
2023-01-13T16:18:32.397Z,15.80
2023-01-13T16:23:36.428Z,15.80
2023-01-13T16:28:40.502Z,15.80
2023-01-13T16:33:44.560Z,15.80
2023-01-13T16:38:50.213Z,15.80
2023-01-13T16:43:54.731Z,15.80
2023-01-13T16:49:03.493Z,15.80
2023-01-13T16:54:07.728Z,15.80
2023-01-13T16:59:14.811Z,15.80
2023-01-13T17:04:22.161Z,15.90
2023-01-13T17:09:29.194Z,15.80
2023-01-13T17:14:33.287Z,15.80
2023-01-13T17:19:37.732Z,15.90
2023-01-13T17:24:43.500Z,15.80
2023-01-13T17:29:47.998Z,15.80
2023-01-13T17:34:54.620Z,15.80
2023-01-13T17:39:58.792Z,15.80
2023-01-13T17:45:03.018Z,15.80
2023-01-13T17:50:08.073Z,15.70
2023-01-13T17:55:13.016Z,15.60
2023-01-13T18:00:17.887Z,15.70
2023-01-13T18:05:22.418Z,15.80
2023-01-13T18:10:27.202Z,15.80
2023-01-13T18:15:32.210Z,15.80
2023-01-13T18:20:56.401Z,15.80
2023-01-13T18:26:19.158Z,15.70
2023-01-13T18:31:25.187Z,15.70
2023-01-13T18:36:29.778Z,15.80
2023-01-13T18:42:06.457Z,15.80
2023-01-13T18:47:12.298Z,15.80
2023-01-13T18:52:17.131Z,15.80
2023-01-13T18:57:23.918Z,15.70
2023-01-13T19:02:30.319Z,15.70
2023-01-13T19:07:37.058Z,15.80
2023-01-13T19:12:42.860Z,15.70
2023-01-13T19:17:49.040Z,15.70
2023-01-13T19:22:56.945Z,15.60
2023-01-13T19:28:01.383Z,15.70
2023-01-13T19:33:05.338Z,15.70
2023-01-13T19:38:11.080Z,15.70
2023-01-13T19:43:33.835Z,15.70
2023-01-13T19:48:39.816Z,15.70
2023-01-13T19:53:45.175Z,15.70
2023-01-13T19:58:52.280Z,15.60
2023-01-13T20:04:03.217Z,15.60
2023-01-13T20:09:08.833Z,15.60
2023-01-13T20:14:13.588Z,15.70
2023-01-13T20:19:21.221Z,15.50
2023-01-13T20:24:28.921Z,15.50
2023-01-13T20:29:35.263Z,15.50
2023-01-13T20:34:41.382Z,15.50
2023-01-13T20:39:47.046Z,15.60
2023-01-13T20:44:51.595Z,15.60
2023-01-13T20:49:57.060Z,15.60
2023-01-13T20:55:02.756Z,15.60
2023-01-13T21:00:07.892Z,15.60
2023-01-13T21:05:13.578Z,15.50
2023-01-13T21:10:17.908Z,15.50
2023-01-13T21:15:23.219Z,15.60
2023-01-13T21:20:27.191Z,15.60
2023-01-13T21:25:34.537Z,15.50
2023-01-13T21:30:40.131Z,15.50
2023-01-13T21:35:44.351Z,15.40
2023-01-13T21:41:06.670Z,15.40
2023-01-13T21:46:38.212Z,15.40
2023-01-13T21:51:43.880Z,15.40
2023-01-13T21:56:48.943Z,15.50
2023-01-13T22:02:23.888Z,15.40
2023-01-13T22:07:17.159Z,15.40
2023-01-13T22:12:24.472Z,15.30
2023-01-13T22:17:31.793Z,15.40
2023-01-13T22:22:37.365Z,15.30
2023-01-13T22:27:43.663Z,15.30
2023-01-13T22:32:48.293Z,15.30
2023-01-13T22:37:52.417Z,15.20
2023-01-13T22:42:56.343Z,15.20
2023-01-13T22:48:00.375Z,15.20
2023-01-13T22:53:05.627Z,15.30
2023-01-13T22:58:09.671Z,15.20
2023-01-13T23:03:14.128Z,15.30
2023-01-13T23:08:18.247Z,15.30
2023-01-13T23:13:22.516Z,15.30
2023-01-13T23:18:26.723Z,15.20
2023-01-13T23:23:31.971Z,15.20
2023-01-13T23:28:36.977Z,15.20
2023-01-13T23:33:41.745Z,15.20
2023-01-13T23:38:46.858Z,15.20
2023-01-13T23:44:01.077Z,15.20
2023-01-13T23:49:05.442Z,15.20
2023-01-13T23:54:09.688Z,15.20
2023-01-13T23:59:13.713Z,15.20
